LHG8876 MMMX-SBKP
Flight info
| Callsign | LHG8876 |
|---|---|
| Flight time | N/A |
| Altitude | 37000 |
| Route | ILET2B/23L ILETO UT109 UGATA UT152 ASOKU UL655 SIMAT/N0485F390 UL655 ANRIR UM775 SINIP UZ82 TITVO UM411 UTLOT |
| Aircraft | A359/H-SDE2E3GHIJ3J4J5LM1ORWXY/LB1D1 |
Departure
| Time | N/A |
|---|---|
| Airport | Mexico City Benito Juárez International Airport (MMMX) |
Arrival
| Time | 2026-05-01 13:11 |
|---|---|
| Airport | Viracopos International Airport (SBKP) |
| Time | Latitude | Longitude | Altitude | Speed | Heading |
|---|---|---|---|---|---|
| 2026-05-01 07:23 | 8.75713 | -82.70074 | 36907 ft | 494 kts | 134° |
| 2026-05-01 07:24 | 8.68802 | -82.62333 | 36876 ft | 494 kts | 134° |
| 2026-05-01 07:24 | 8.64230 | -82.57201 | 36880 ft | 494 kts | 134° |
| 2026-05-01 07:25 | 8.59635 | -82.52042 | 36879 ft | 493 kts | 134° |
| 2026-05-01 07:25 | 8.55043 | -82.46892 | 36848 ft | 493 kts | 134° |
| 2026-05-01 07:26 | 8.50449 | -82.41741 | 36847 ft | 493 kts | 134° |
| 2026-05-01 07:26 | 8.45885 | -82.36626 | 36849 ft | 494 kts | 134° |
| 2026-05-01 07:27 | 8.41285 | -82.31473 | 36828 ft | 494 kts | 134° |
| 2026-05-01 07:27 | 8.36684 | -82.26320 | 36831 ft | 494 kts | 134° |
| 2026-05-01 07:28 | 8.32082 | -82.21168 | 36826 ft | 494 kts | 134° |
| 2026-05-01 07:28 | 8.27510 | -82.16051 | 36825 ft | 494 kts | 134° |
| 2026-05-01 07:29 | 8.22912 | -82.10906 | 36811 ft | 493 kts | 135° |
| 2026-05-01 07:29 | 8.18320 | -82.05771 | 36816 ft | 492 kts | 135° |
| 2026-05-01 07:30 | 8.13727 | -82.00638 | 36830 ft | 492 kts | 135° |
| 2026-05-01 07:30 | 8.09167 | -81.95543 | 36810 ft | 493 kts | 135° |
| 2026-05-01 07:31 | 8.04575 | -81.90413 | 36813 ft | 492 kts | 135° |
| 2026-05-01 07:32 | 7.93092 | -81.77594 | 36812 ft | 492 kts | 135° |
| 2026-05-01 07:33 | 7.86232 | -81.69942 | 36812 ft | 492 kts | 135° |
| 2026-05-01 07:33 | 7.79339 | -81.62257 | 36813 ft | 492 kts | 135° |
| 2026-05-01 07:34 | 7.72457 | -81.54588 | 36812 ft | 491 kts | 135° |
| 2026-05-01 07:35 | 7.67904 | -81.49517 | 36809 ft | 491 kts | 135° |
| 2026-05-01 07:35 | 7.63315 | -81.44408 | 36810 ft | 491 kts | 135° |
| 2026-05-01 07:36 | 7.58726 | -81.39300 | 36824 ft | 491 kts | 135° |
| 2026-05-01 07:36 | 7.54137 | -81.34194 | 36809 ft | 491 kts | 135° |
| 2026-05-01 07:37 | 7.47284 | -81.26572 | 36813 ft | 491 kts | 134° |
| 2026-05-01 07:37 | 7.42692 | -81.21467 | 36797 ft | 492 kts | 134° |
| 2026-05-01 07:38 | 7.38097 | -81.16360 | 36801 ft | 492 kts | 134° |
| 2026-05-01 07:39 | 7.31233 | -81.08735 | 36798 ft | 492 kts | 134° |
| 2026-05-01 07:39 | 7.24345 | -81.01087 | 36804 ft | 492 kts | 135° |
| 2026-05-01 07:40 | 7.19750 | -80.95987 | 36803 ft | 492 kts | 134° |
| 2026-05-01 07:40 | 7.15154 | -80.90887 | 36824 ft | 492 kts | 134° |
| 2026-05-01 07:41 | 7.10591 | -80.85826 | 36825 ft | 491 kts | 134° |
| 2026-05-01 07:42 | 7.03709 | -80.78196 | 36822 ft | 491 kts | 134° |
| 2026-05-01 07:42 | 6.99119 | -80.73108 | 36821 ft | 491 kts | 134° |
| 2026-05-01 07:43 | 6.94528 | -80.68022 | 36810 ft | 491 kts | 134° |
| 2026-05-01 07:43 | 6.87673 | -80.60430 | 36823 ft | 491 kts | 134° |
| 2026-05-01 07:44 | 6.78495 | -80.50271 | 36804 ft | 490 kts | 134° |
| 2026-05-01 07:45 | 6.73943 | -80.45235 | 36806 ft | 490 kts | 134° |
| 2026-05-01 07:45 | 6.69347 | -80.40152 | 36822 ft | 492 kts | 134° |
| 2026-05-01 07:46 | 6.64744 | -80.35061 | 36819 ft | 492 kts | 134° |
| 2026-05-01 07:47 | 6.57829 | -80.27417 | 36821 ft | 492 kts | 134° |
| 2026-05-01 07:47 | 6.53251 | -80.22359 | 36820 ft | 492 kts | 134° |
| 2026-05-01 07:48 | 6.46338 | -80.14724 | 36822 ft | 492 kts | 134° |
| 2026-05-01 07:48 | 6.41730 | -80.09636 | 36802 ft | 492 kts | 134° |
| 2026-05-01 07:49 | 6.34845 | -80.02037 | 36814 ft | 493 kts | 134° |
| 2026-05-01 07:50 | 6.30217 | -79.96931 | 36816 ft | 494 kts | 134° |
| 2026-05-01 07:50 | 6.23265 | -79.89263 | 36817 ft | 495 kts | 134° |
| 2026-05-01 07:51 | 6.18662 | -79.84188 | 36817 ft | 495 kts | 134° |
| 2026-05-01 07:52 | 6.11712 | -79.76527 | 36823 ft | 494 kts | 134° |
| 2026-05-01 07:52 | 6.07081 | -79.71425 | 36816 ft | 494 kts | 134° |
| 2026-05-01 07:53 | 6.00165 | -79.63809 | 36817 ft | 494 kts | 134° |
| 2026-05-01 07:53 | 5.95530 | -79.58705 | 36815 ft | 496 kts | 134° |
| 2026-05-01 07:55 | 5.84686 | -79.46762 | 36814 ft | 497 kts | 134° |
| 2026-05-01 07:56 | 5.72275 | -79.33108 | 36814 ft | 498 kts | 134° |
| 2026-05-01 07:57 | 5.66121 | -79.26199 | 36814 ft | 499 kts | 133° |
| 2026-05-01 07:58 | 5.56164 | -79.14917 | 36816 ft | 502 kts | 134° |
| 2026-05-01 07:59 | 5.47643 | -79.05313 | 36828 ft | 503 kts | 134° |
| 2026-05-01 08:00 | 5.33698 | -78.89608 | 36822 ft | 503 kts | 134° |
| 2026-05-01 08:01 | 5.24379 | -78.79118 | 36816 ft | 503 kts | 134° |
| 2026-05-01 08:02 | 5.17408 | -78.71275 | 36816 ft | 505 kts | 134° |
| 2026-05-01 08:03 | 5.10387 | -78.63378 | 36814 ft | 506 kts | 134° |
| 2026-05-01 08:03 | 5.03354 | -78.55470 | 36815 ft | 506 kts | 134° |
| 2026-05-01 08:04 | 4.94008 | -78.44966 | 36814 ft | 506 kts | 134° |
| 2026-05-01 08:05 | 4.86974 | -78.37064 | 36816 ft | 506 kts | 134° |
| 2026-05-01 08:06 | 4.79935 | -78.29158 | 36815 ft | 507 kts | 134° |
| 2026-05-01 08:07 | 4.70572 | -78.18648 | 36816 ft | 507 kts | 134° |
| 2026-05-01 08:08 | 4.63525 | -78.10740 | 36814 ft | 507 kts | 134° |
| 2026-05-01 08:09 | 4.54158 | -78.00233 | 36816 ft | 507 kts | 134° |
| 2026-05-01 08:09 | 4.49463 | -77.94967 | 36821 ft | 507 kts | 134° |
| 2026-05-01 08:10 | 4.40090 | -77.84460 | 36821 ft | 507 kts | 134° |
| 2026-05-01 08:11 | 4.30701 | -77.73938 | 36824 ft | 506 kts | 134° |
| 2026-05-01 08:12 | 4.23688 | -77.66081 | 36824 ft | 506 kts | 134° |
| 2026-05-01 08:13 | 4.16643 | -77.58192 | 36814 ft | 507 kts | 134° |
| 2026-05-01 08:13 | 4.09579 | -77.50284 | 36817 ft | 508 kts | 134° |
| 2026-05-01 08:14 | 4.04889 | -77.45036 | 36835 ft | 510 kts | 134° |
| 2026-05-01 08:14 | 4.00163 | -77.39747 | 36817 ft | 510 kts | 134° |
| 2026-05-01 08:15 | 3.93067 | -77.31807 | 36825 ft | 510 kts | 134° |
| 2026-05-01 08:16 | 3.88333 | -77.26512 | 36821 ft | 510 kts | 134° |
| 2026-05-01 08:16 | 3.83633 | -77.21255 | 36838 ft | 510 kts | 134° |
| 2026-05-01 08:17 | 3.78896 | -77.15959 | 36833 ft | 511 kts | 134° |
| 2026-05-01 08:17 | 3.74157 | -77.10662 | 36831 ft | 511 kts | 134° |
| 2026-05-01 08:18 | 3.69407 | -77.05352 | 36835 ft | 512 kts | 134° |
| 2026-05-01 08:19 | 3.59918 | -76.94748 | 36852 ft | 513 kts | 134° |
| 2026-05-01 08:19 | 3.55156 | -76.89428 | 36881 ft | 513 kts | 134° |
| 2026-05-01 08:20 | 3.50394 | -76.84109 | 36899 ft | 513 kts | 135° |
| 2026-05-01 08:20 | 3.45657 | -76.78820 | 36919 ft | 514 kts | 135° |
| 2026-05-01 08:21 | 3.40890 | -76.73497 | 36926 ft | 514 kts | 135° |
| 2026-05-01 08:21 | 3.36121 | -76.68172 | 36925 ft | 514 kts | 135° |
| 2026-05-01 08:22 | 3.31356 | -76.62850 | 36927 ft | 513 kts | 135° |
| 2026-05-01 08:22 | 3.26628 | -76.57566 | 36928 ft | 513 kts | 135° |
| 2026-05-01 08:23 | 3.21860 | -76.52250 | 36935 ft | 513 kts | 135° |
| 2026-05-01 08:23 | 3.17093 | -76.46935 | 36943 ft | 513 kts | 135° |
| 2026-05-01 08:24 | 3.12324 | -76.41616 | 36941 ft | 513 kts | 135° |
| 2026-05-01 08:24 | 3.07584 | -76.36329 | 36951 ft | 513 kts | 135° |
| 2026-05-01 08:25 | 3.02815 | -76.31010 | 36981 ft | 513 kts | 135° |
| 2026-05-01 08:25 | 2.98046 | -76.25696 | 36996 ft | 513 kts | 135° |
| 2026-05-01 08:26 | 2.93278 | -76.20377 | 37047 ft | 513 kts | 135° |
| 2026-05-01 08:26 | 2.88548 | -76.15104 | 37043 ft | 512 kts | 135° |
| 2026-05-01 08:27 | 2.83785 | -76.09808 | 37039 ft | 511 kts | 135° |
| 2026-05-01 08:27 | 2.79003 | -76.04548 | 37049 ft | 511 kts | 135° |
| 2026-05-01 08:28 | 2.74212 | -75.99294 | 37050 ft | 511 kts | 135° |
| 2026-05-01 08:28 | 2.69461 | -75.94079 | 37051 ft | 511 kts | 135° |
| 2026-05-01 08:29 | 2.64674 | -75.88818 | 37004 ft | 511 kts | 135° |
| 2026-05-01 08:29 | 2.59891 | -75.83557 | 37000 ft | 511 kts | 135° |
| 2026-05-01 08:30 | 2.55096 | -75.78290 | 36968 ft | 513 kts | 135° |
| 2026-05-01 08:30 | 2.50291 | -75.73010 | 36970 ft | 514 kts | 135° |
| 2026-05-01 08:31 | 2.45508 | -75.67756 | 36962 ft | 514 kts | 135° |
| 2026-05-01 08:31 | 2.40698 | -75.62471 | 36964 ft | 514 kts | 135° |
| 2026-05-01 08:32 | 2.35889 | -75.57189 | 36985 ft | 514 kts | 135° |
| 2026-05-01 08:32 | 2.31080 | -75.51906 | 36980 ft | 514 kts | 135° |
| 2026-05-01 08:33 | 2.26300 | -75.46653 | 36989 ft | 514 kts | 135° |
| 2026-05-01 08:33 | 2.21486 | -75.41366 | 36992 ft | 514 kts | 135° |
| 2026-05-01 08:34 | 2.16679 | -75.36087 | 36996 ft | 513 kts | 135° |
| 2026-05-01 08:34 | 2.11874 | -75.30812 | 36989 ft | 513 kts | 135° |
| 2026-05-01 08:35 | 2.07105 | -75.25577 | 36988 ft | 513 kts | 135° |
| 2026-05-01 08:35 | 2.02304 | -75.20304 | 36951 ft | 513 kts | 135° |
| 2026-05-01 08:36 | 1.97502 | -75.15033 | 36949 ft | 513 kts | 135° |
| 2026-05-01 08:36 | 1.92696 | -75.09758 | 36948 ft | 513 kts | 135° |
| 2026-05-01 08:37 | 1.87895 | -75.04489 | 36919 ft | 513 kts | 135° |
| 2026-05-01 08:37 | 1.83129 | -74.99258 | 36919 ft | 512 kts | 135° |
| 2026-05-01 08:38 | 1.78348 | -74.94011 | 36919 ft | 509 kts | 135° |
| 2026-05-01 08:38 | 1.73581 | -74.88780 | 36907 ft | 509 kts | 135° |
| 2026-05-01 08:39 | 1.68817 | -74.83554 | 36910 ft | 509 kts | 135° |
| 2026-05-01 08:39 | 1.64049 | -74.78324 | 36905 ft | 509 kts | 135° |
| 2026-05-01 08:40 | 1.56932 | -74.70516 | 36903 ft | 509 kts | 135° |
| 2026-05-01 08:40 | 1.52165 | -74.65288 | 36902 ft | 509 kts | 135° |
| 2026-05-01 08:41 | 1.47396 | -74.60057 | 36897 ft | 509 kts | 135° |
| 2026-05-01 08:41 | 1.42673 | -74.54878 | 36903 ft | 506 kts | 134° |
| 2026-05-01 08:42 | 1.37945 | -74.49692 | 36913 ft | 505 kts | 134° |
| 2026-05-01 08:42 | 1.33217 | -74.44507 | 36895 ft | 505 kts | 134° |
| 2026-05-01 08:43 | 1.28491 | -74.39325 | 36891 ft | 505 kts | 134° |
| 2026-05-01 08:43 | 1.23763 | -74.34142 | 36895 ft | 505 kts | 134° |
| 2026-05-01 08:44 | 1.19069 | -74.28995 | 36898 ft | 504 kts | 134° |
| 2026-05-01 08:44 | 1.14346 | -74.23817 | 36898 ft | 504 kts | 134° |
| 2026-05-01 08:45 | 1.09620 | -74.18636 | 36896 ft | 504 kts | 133° |
| 2026-05-01 08:45 | 1.04915 | -74.13478 | 36893 ft | 500 kts | 133° |
| 2026-05-01 08:46 | 1.00259 | -74.08399 | 36895 ft | 499 kts | 133° |
| 2026-05-01 08:46 | 0.95565 | -74.03293 | 36895 ft | 499 kts | 133° |
| 2026-05-01 08:47 | 0.90874 | -73.98189 | 36894 ft | 499 kts | 133° |
| 2026-05-01 08:47 | 0.86180 | -73.93081 | 36895 ft | 499 kts | 133° |
| 2026-05-01 08:48 | 0.81520 | -73.88009 | 36893 ft | 499 kts | 133° |
| 2026-05-01 08:48 | 0.76829 | -73.82902 | 36891 ft | 499 kts | 133° |
| 2026-05-01 08:49 | 0.72141 | -73.77800 | 36893 ft | 498 kts | 133° |
| 2026-05-01 08:49 | 0.67459 | -73.72706 | 36891 ft | 497 kts | 133° |
| 2026-05-01 08:50 | 0.62818 | -73.67654 | 36894 ft | 497 kts | 133° |
| 2026-05-01 08:50 | 0.58148 | -73.62570 | 36884 ft | 497 kts | 133° |
| 2026-05-01 08:51 | 0.53474 | -73.57483 | 36904 ft | 497 kts | 133° |
| 2026-05-01 08:51 | 0.48805 | -73.52403 | 36904 ft | 497 kts | 133° |
| 2026-05-01 08:52 | 0.44164 | -73.47352 | 36889 ft | 497 kts | 133° |
| 2026-05-01 08:52 | 0.39495 | -73.42271 | 36890 ft | 497 kts | 133° |
| 2026-05-01 08:53 | 0.34819 | -73.37184 | 36905 ft | 496 kts | 133° |
| 2026-05-01 08:53 | 0.30160 | -73.32114 | 36889 ft | 495 kts | 133° |
| 2026-05-01 08:54 | 0.25532 | -73.27077 | 36887 ft | 495 kts | 133° |
| 2026-05-01 08:54 | 0.20878 | -73.22013 | 36900 ft | 495 kts | 133° |
| 2026-05-01 08:55 | 0.16221 | -73.16946 | 36907 ft | 495 kts | 133° |
| 2026-05-01 08:55 | 0.11565 | -73.11879 | 36892 ft | 495 kts | 133° |
| 2026-05-01 08:56 | 0.06939 | -73.06846 | 36890 ft | 495 kts | 133° |
| 2026-05-01 08:56 | 0.02284 | -73.01780 | 36889 ft | 495 kts | 133° |
| 2026-05-01 08:57 | -0.02368 | -72.96719 | 36902 ft | 494 kts | 132° |
| 2026-05-01 08:57 | -0.07027 | -72.91650 | 36960 ft | 496 kts | 132° |
| 2026-05-01 08:58 | -0.09357 | -72.89110 | 37145 ft | 496 kts | 132° |
| 2026-05-01 08:58 | -0.11681 | -72.86565 | 37349 ft | 495 kts | 132° |
| 2026-05-01 08:58 | -0.13966 | -72.84057 | 37519 ft | 495 kts | 132° |
| 2026-05-01 08:58 | -0.16281 | -72.81515 | 37672 ft | 495 kts | 132° |
| 2026-05-01 08:59 | -0.18598 | -72.78973 | 37842 ft | 495 kts | 132° |
| 2026-05-01 08:59 | -0.20914 | -72.76432 | 38002 ft | 494 kts | 132° |
| 2026-05-01 08:59 | -0.23230 | -72.73893 | 38147 ft | 494 kts | 132° |
| 2026-05-01 08:59 | -0.25545 | -72.71356 | 38298 ft | 494 kts | 132° |
| 2026-05-01 09:00 | -0.27860 | -72.68820 | 38435 ft | 494 kts | 132° |
| 2026-05-01 09:00 | -0.30175 | -72.66284 | 38546 ft | 494 kts | 132° |
| 2026-05-01 09:00 | -0.32459 | -72.63781 | 38659 ft | 494 kts | 132° |
| 2026-05-01 09:00 | -0.34774 | -72.61245 | 38752 ft | 494 kts | 132° |
| 2026-05-01 09:01 | -0.37087 | -72.58711 | 38862 ft | 494 kts | 132° |
| 2026-05-01 09:01 | -0.39401 | -72.56176 | 38894 ft | 493 kts | 132° |
| 2026-05-01 09:01 | -0.44017 | -72.51118 | 38892 ft | 492 kts | 132° |
| 2026-05-01 09:02 | -0.48627 | -72.46066 | 38892 ft | 492 kts | 132° |
| 2026-05-01 09:02 | -0.53210 | -72.41044 | 38892 ft | 492 kts | 132° |
| 2026-05-01 09:03 | -0.57822 | -72.35990 | 38895 ft | 492 kts | 132° |
| 2026-05-01 09:03 | -0.62434 | -72.30937 | 38892 ft | 492 kts | 132° |
| 2026-05-01 09:04 | -0.67040 | -72.25889 | 38895 ft | 492 kts | 132° |
| 2026-05-01 09:04 | -0.71605 | -72.20887 | 38891 ft | 487 kts | 132° |
| 2026-05-01 09:05 | -0.76170 | -72.15884 | 38890 ft | 488 kts | 132° |
| 2026-05-01 09:05 | -0.80752 | -72.10862 | 38889 ft | 489 kts | 132° |
| 2026-05-01 09:06 | -0.85338 | -72.05835 | 38889 ft | 490 kts | 132° |
| 2026-05-01 09:06 | -0.89897 | -72.00838 | 38889 ft | 490 kts | 132° |
| 2026-05-01 09:07 | -0.94485 | -71.95810 | 38892 ft | 490 kts | 132° |
| 2026-05-01 09:07 | -0.99073 | -71.90781 | 38892 ft | 490 kts | 132° |
| 2026-05-01 09:08 | -1.03655 | -71.85758 | 38894 ft | 488 kts | 132° |
| 2026-05-01 09:08 | -1.08197 | -71.80779 | 38895 ft | 488 kts | 132° |
| 2026-05-01 09:09 | -1.12770 | -71.75766 | 38895 ft | 489 kts | 132° |
| 2026-05-01 09:09 | -1.17355 | -71.70739 | 38892 ft | 489 kts | 132° |
| 2026-05-01 09:10 | -1.21943 | -71.65710 | 38895 ft | 489 kts | 132° |
| 2026-05-01 09:10 | -1.26528 | -71.60682 | 38895 ft | 489 kts | 132° |
| 2026-05-01 09:11 | -1.31082 | -71.55689 | 38893 ft | 489 kts | 132° |
| 2026-05-01 09:11 | -1.35660 | -71.50669 | 38892 ft | 488 kts | 132° |
| 2026-05-01 09:12 | -1.40229 | -71.45658 | 38892 ft | 487 kts | 132° |
| 2026-05-01 09:12 | -1.44789 | -71.40656 | 38890 ft | 487 kts | 132° |
| 2026-05-01 09:13 | -1.49331 | -71.35677 | 38895 ft | 488 kts | 132° |
| 2026-05-01 09:13 | -1.53906 | -71.30658 | 38895 ft | 488 kts | 132° |
| 2026-05-01 09:14 | -1.58483 | -71.25637 | 38892 ft | 489 kts | 132° |
| 2026-05-01 09:14 | -1.63058 | -71.20618 | 38892 ft | 489 kts | 132° |
| 2026-05-01 09:15 | -1.67636 | -71.15596 | 38892 ft | 489 kts | 132° |
| 2026-05-01 09:15 | -1.72181 | -71.10609 | 38892 ft | 488 kts | 132° |
| 2026-05-01 09:16 | -1.76758 | -71.05587 | 38889 ft | 488 kts | 132° |
| 2026-05-01 09:17 | -1.83623 | -70.98055 | 38892 ft | 489 kts | 131° |
| 2026-05-01 09:17 | -1.90467 | -70.90543 | 38889 ft | 490 kts | 131° |
| 2026-05-01 09:18 | -1.97333 | -70.83009 | 38889 ft | 487 kts | 131° |
| 2026-05-01 09:19 | -2.04151 | -70.75549 | 38887 ft | 486 kts | 131° |
| 2026-05-01 09:20 | -2.10992 | -70.68067 | 38892 ft | 486 kts | 131° |
| 2026-05-01 09:21 | -2.20118 | -70.58081 | 38894 ft | 487 kts | 131° |
| 2026-05-01 09:21 | -2.26945 | -70.50608 | 38892 ft | 486 kts | 131° |
| 2026-05-01 09:22 | -2.36058 | -70.40633 | 38889 ft | 485 kts | 131° |
| 2026-05-01 09:23 | -2.42854 | -70.33192 | 38895 ft | 485 kts | 131° |
| 2026-05-01 09:24 | -2.49680 | -70.25717 | 38894 ft | 485 kts | 131° |
| 2026-05-01 09:25 | -2.58790 | -70.15740 | 38894 ft | 486 kts | 131° |
| 2026-05-01 09:26 | -2.65587 | -70.08294 | 38894 ft | 485 kts | 131° |
| 2026-05-01 09:26 | -2.72417 | -70.00825 | 38898 ft | 485 kts | 132° |
| 2026-05-01 09:27 | -2.79605 | -69.93677 | 38894 ft | 486 kts | 134° |
| 2026-05-01 09:28 | -2.84415 | -69.88991 | 38898 ft | 486 kts | 134° |
| 2026-05-01 09:28 | -2.89223 | -69.84246 | 38897 ft | 486 kts | 134° |
| 2026-05-01 09:29 | -2.96435 | -69.77079 | 38901 ft | 488 kts | 134° |
| 2026-05-01 09:30 | -3.03620 | -69.69939 | 38900 ft | 488 kts | 134° |
| 2026-05-01 09:30 | -3.10863 | -69.62788 | 38903 ft | 488 kts | 134° |
| 2026-05-01 09:31 | -3.15692 | -69.58021 | 38900 ft | 488 kts | 134° |
| 2026-05-01 09:32 | -3.22933 | -69.50868 | 38900 ft | 488 kts | 134° |
| 2026-05-01 09:32 | -3.30188 | -69.43699 | 38904 ft | 492 kts | 134° |
| 2026-05-01 09:33 | -3.35060 | -69.38885 | 38902 ft | 492 kts | 134° |
| 2026-05-01 09:34 | -3.42369 | -69.31661 | 38903 ft | 492 kts | 134° |
| 2026-05-01 09:34 | -3.49646 | -69.24467 | 38902 ft | 492 kts | 134° |
| 2026-05-01 09:35 | -3.56953 | -69.17240 | 38906 ft | 493 kts | 134° |
| 2026-05-01 09:36 | -3.61832 | -69.12414 | 38902 ft | 493 kts | 134° |
| 2026-05-01 09:36 | -3.66682 | -69.07617 | 38904 ft | 493 kts | 134° |
| 2026-05-01 09:37 | -3.71566 | -69.02784 | 38903 ft | 493 kts | 134° |
| 2026-05-01 09:37 | -3.78889 | -68.95538 | 38905 ft | 493 kts | 134° |
| 2026-05-01 09:38 | -3.86208 | -68.88293 | 38906 ft | 493 kts | 134° |
| 2026-05-01 09:39 | -3.93503 | -68.81071 | 38908 ft | 495 kts | 134° |
| 2026-05-01 09:39 | -3.98400 | -68.76221 | 38907 ft | 495 kts | 134° |
| 2026-05-01 09:40 | -4.05755 | -68.68958 | 38911 ft | 495 kts | 134° |
| 2026-05-01 09:41 | -4.10643 | -68.64158 | 38912 ft | 495 kts | 134° |
| 2026-05-01 09:41 | -4.18020 | -68.56908 | 38911 ft | 495 kts | 134° |
| 2026-05-01 09:42 | -4.22937 | -68.52072 | 38912 ft | 495 kts | 134° |
| 2026-05-01 09:43 | -4.32745 | -68.42419 | 38909 ft | 496 kts | 134° |
| 2026-05-01 09:43 | -4.37669 | -68.37571 | 38909 ft | 496 kts | 134° |
| 2026-05-01 09:44 | -4.45055 | -68.30298 | 38905 ft | 496 kts | 134° |
| 2026-05-01 09:45 | -4.49946 | -68.25481 | 38906 ft | 496 kts | 134° |
| 2026-05-01 09:45 | -4.57333 | -68.18205 | 38900 ft | 496 kts | 134° |
| 2026-05-01 09:46 | -4.62260 | -68.13349 | 38910 ft | 496 kts | 133° |
| 2026-05-01 09:46 | -4.67132 | -68.08549 | 38908 ft | 494 kts | 133° |
| 2026-05-01 09:47 | -4.72030 | -68.03720 | 38908 ft | 494 kts | 133° |
| 2026-05-01 09:47 | -4.76926 | -67.98892 | 38908 ft | 494 kts | 133° |
| 2026-05-01 09:48 | -4.81821 | -67.94065 | 38906 ft | 494 kts | 133° |
| 2026-05-01 09:48 | -4.86687 | -67.89266 | 38905 ft | 494 kts | 133° |
| 2026-05-01 09:49 | -4.91580 | -67.84437 | 38910 ft | 494 kts | 133° |
| 2026-05-01 09:49 | -4.96477 | -67.79605 | 38909 ft | 495 kts | 133° |
| 2026-05-01 09:50 | -5.01400 | -67.74745 | 38909 ft | 497 kts | 133° |
| 2026-05-01 09:50 | -5.06299 | -67.69908 | 38909 ft | 498 kts | 133° |
| 2026-05-01 09:51 | -5.11231 | -67.65039 | 38909 ft | 497 kts | 133° |
| 2026-05-01 09:51 | -5.16161 | -67.60170 | 38908 ft | 497 kts | 133° |
| 2026-05-01 09:52 | -5.21093 | -67.55297 | 38908 ft | 497 kts | 133° |
| 2026-05-01 09:52 | -5.25989 | -67.50458 | 38909 ft | 498 kts | 134° |
| 2026-05-01 09:53 | -5.30926 | -67.45580 | 38910 ft | 498 kts | 134° |
| 2026-05-01 09:53 | -5.35871 | -67.40693 | 38908 ft | 499 kts | 133° |
| 2026-05-01 09:54 | -5.40813 | -67.35807 | 38909 ft | 499 kts | 133° |
| 2026-05-01 09:54 | -5.45724 | -67.30951 | 38908 ft | 499 kts | 133° |
| 2026-05-01 09:55 | -5.50665 | -67.26064 | 38911 ft | 499 kts | 133° |
| 2026-05-01 09:55 | -5.55607 | -67.21175 | 38910 ft | 499 kts | 133° |
| 2026-05-01 09:56 | -5.60559 | -67.16276 | 38909 ft | 500 kts | 133° |
| 2026-05-01 09:56 | -5.65481 | -67.11411 | 38908 ft | 500 kts | 133° |
| 2026-05-01 09:57 | -5.70428 | -67.06507 | 38908 ft | 500 kts | 133° |
| 2026-05-01 09:57 | -5.75376 | -67.01601 | 38909 ft | 500 kts | 133° |
| 2026-05-01 09:58 | -5.80324 | -66.96697 | 38908 ft | 500 kts | 133° |
| 2026-05-01 09:58 | -5.85235 | -66.91829 | 38909 ft | 500 kts | 133° |
| 2026-05-01 09:59 | -5.90182 | -66.86924 | 38908 ft | 499 kts | 133° |
| 2026-05-01 09:59 | -5.95123 | -66.82026 | 38908 ft | 499 kts | 133° |
| 2026-05-01 10:00 | -6.00070 | -66.77118 | 38912 ft | 500 kts | 133° |
| 2026-05-01 10:00 | -6.04986 | -66.72240 | 38911 ft | 500 kts | 133° |
| 2026-05-01 10:01 | -6.09937 | -66.67326 | 38909 ft | 500 kts | 133° |
| 2026-05-01 10:01 | -6.14888 | -66.62411 | 38909 ft | 500 kts | 133° |
| 2026-05-01 10:02 | -6.19837 | -66.57497 | 38911 ft | 500 kts | 133° |
| 2026-05-01 10:02 | -6.24752 | -66.52614 | 38911 ft | 500 kts | 134° |
| 2026-05-01 10:03 | -6.29695 | -66.47702 | 38912 ft | 500 kts | 134° |
| 2026-05-01 10:03 | -6.34637 | -66.42792 | 38911 ft | 499 kts | 134° |
| 2026-05-01 10:04 | -6.39574 | -66.37883 | 38911 ft | 499 kts | 134° |
| 2026-05-01 10:04 | -6.44481 | -66.33006 | 38910 ft | 499 kts | 134° |
| 2026-05-01 10:05 | -6.49422 | -66.28096 | 38911 ft | 499 kts | 134° |
| 2026-05-01 10:05 | -6.54355 | -66.23184 | 38911 ft | 499 kts | 134° |
| 2026-05-01 10:06 | -6.59285 | -66.18274 | 38914 ft | 498 kts | 134° |
| 2026-05-01 10:06 | -6.64176 | -66.13406 | 38914 ft | 498 kts | 133° |
| 2026-05-01 10:07 | -6.69093 | -66.08509 | 38912 ft | 497 kts | 133° |
| 2026-05-01 10:07 | -6.74012 | -66.03609 | 38911 ft | 497 kts | 133° |
| 2026-05-01 10:08 | -6.81350 | -65.96296 | 38914 ft | 497 kts | 133° |
| 2026-05-01 10:09 | -6.86268 | -65.91393 | 38912 ft | 498 kts | 134° |
| 2026-05-01 10:09 | -6.91189 | -65.86486 | 38914 ft | 498 kts | 134° |
| 2026-05-01 10:10 | -6.96115 | -65.81573 | 38913 ft | 498 kts | 134° |
| 2026-05-01 10:10 | -7.03470 | -65.74233 | 38914 ft | 499 kts | 134° |
| 2026-05-01 10:11 | -7.08397 | -65.69315 | 38914 ft | 499 kts | 134° |
| 2026-05-01 10:11 | -7.13325 | -65.64394 | 38913 ft | 499 kts | 134° |
| 2026-05-01 10:12 | -7.17418 | -65.60305 | 38912 ft | 499 kts | 133° |
| 2026-05-01 10:13 | -7.25601 | -65.52128 | 38915 ft | 499 kts | 133° |
| 2026-05-01 10:13 | -7.30525 | -65.47206 | 38913 ft | 499 kts | 133° |
| 2026-05-01 10:14 | -7.37905 | -65.39825 | 38916 ft | 499 kts | 133° |
| 2026-05-01 10:14 | -7.42796 | -65.34932 | 38913 ft | 498 kts | 133° |
| 2026-05-01 10:15 | -7.47713 | -65.30010 | 38913 ft | 498 kts | 133° |
| 2026-05-01 10:15 | -7.52629 | -65.25088 | 38911 ft | 498 kts | 133° |
| 2026-05-01 10:16 | -7.57516 | -65.20195 | 38913 ft | 498 kts | 133° |
| 2026-05-01 10:17 | -7.64904 | -65.12791 | 38912 ft | 500 kts | 134° |
| 2026-05-01 10:17 | -7.72310 | -65.05367 | 38911 ft | 501 kts | 134° |
| 2026-05-01 10:18 | -7.79718 | -64.97936 | 38921 ft | 501 kts | 134° |
| 2026-05-01 10:19 | -7.84625 | -64.93013 | 38914 ft | 501 kts | 134° |
| 2026-05-01 10:19 | -7.89563 | -64.88057 | 38914 ft | 501 kts | 134° |
| 2026-05-01 10:20 | -7.96977 | -64.80612 | 38917 ft | 501 kts | 133° |
| 2026-05-01 10:20 | -8.01916 | -64.75650 | 38917 ft | 501 kts | 133° |
| 2026-05-01 10:21 | -8.09298 | -64.68230 | 38920 ft | 501 kts | 133° |
| 2026-05-01 10:22 | -8.16709 | -64.60777 | 38916 ft | 501 kts | 133° |
| 2026-05-01 10:23 | -8.24088 | -64.53352 | 38919 ft | 501 kts | 133° |
| 2026-05-01 10:23 | -8.31492 | -64.45898 | 38917 ft | 501 kts | 133° |
| 2026-05-01 10:24 | -8.41359 | -64.35960 | 38916 ft | 501 kts | 133° |
| 2026-05-01 10:25 | -8.51205 | -64.26024 | 38918 ft | 502 kts | 133° |
| 2026-05-01 10:26 | -8.56151 | -64.21033 | 38916 ft | 502 kts | 133° |
| 2026-05-01 10:27 | -8.65983 | -64.11106 | 38915 ft | 501 kts | 133° |
| 2026-05-01 10:28 | -8.73381 | -64.03631 | 38909 ft | 501 kts | 133° |
| 2026-05-01 10:28 | -8.80789 | -63.96149 | 38912 ft | 502 kts | 133° |
| 2026-05-01 10:29 | -8.88158 | -63.88689 | 38913 ft | 501 kts | 133° |
| 2026-05-01 10:30 | -8.98006 | -63.78719 | 38918 ft | 501 kts | 133° |
| 2026-05-01 10:31 | -9.07811 | -63.68785 | 38931 ft | 500 kts | 133° |
| 2026-05-01 10:32 | -9.15187 | -63.61307 | 38920 ft | 500 kts | 133° |
| 2026-05-01 10:33 | -9.24955 | -63.51398 | 38922 ft | 498 kts | 133° |
| 2026-05-01 10:34 | -9.32285 | -63.43955 | 38925 ft | 497 kts | 133° |
| 2026-05-01 10:34 | -9.37175 | -63.38988 | 38923 ft | 498 kts | 133° |
| 2026-05-01 10:35 | -9.44600 | -63.31596 | 38920 ft | 499 kts | 136° |
| 2026-05-01 10:35 | -9.49673 | -63.26861 | 38923 ft | 499 kts | 136° |
| 2026-05-01 10:36 | -9.57328 | -63.19696 | 38928 ft | 499 kts | 135° |
| 2026-05-01 10:37 | -9.62405 | -63.14896 | 38934 ft | 499 kts | 135° |
| 2026-05-01 10:37 | -9.69995 | -63.07701 | 38926 ft | 502 kts | 135° |
| 2026-05-01 10:38 | -9.75098 | -63.02862 | 38929 ft | 502 kts | 135° |
| 2026-05-01 10:38 | -9.80199 | -62.98026 | 38941 ft | 502 kts | 135° |
| 2026-05-01 10:39 | -9.85292 | -62.93194 | 38931 ft | 501 kts | 135° |
| 2026-05-01 10:39 | -9.90345 | -62.88398 | 38931 ft | 501 kts | 135° |
| 2026-05-01 10:40 | -9.95430 | -62.83570 | 38927 ft | 501 kts | 135° |
| 2026-05-01 10:40 | -10.00521 | -62.78733 | 38932 ft | 502 kts | 135° |
| 2026-05-01 10:41 | -10.05613 | -62.73893 | 38938 ft | 502 kts | 135° |
| 2026-05-01 10:42 | -10.13221 | -62.66659 | 38935 ft | 501 kts | 135° |
| 2026-05-01 10:42 | -10.18306 | -62.61821 | 38942 ft | 501 kts | 135° |
| 2026-05-01 10:43 | -10.23384 | -62.56988 | 38942 ft | 501 kts | 135° |
| 2026-05-01 10:43 | -10.28464 | -62.52153 | 38933 ft | 501 kts | 135° |
| 2026-05-01 10:44 | -10.33503 | -62.47338 | 38938 ft | 501 kts | 135° |
| 2026-05-01 10:44 | -10.38578 | -62.42489 | 38935 ft | 501 kts | 135° |
| 2026-05-01 10:45 | -10.43658 | -62.37637 | 38935 ft | 501 kts | 135° |
| 2026-05-01 10:45 | -10.48738 | -62.32784 | 38945 ft | 501 kts | 135° |
| 2026-05-01 10:46 | -10.53780 | -62.27964 | 38944 ft | 501 kts | 135° |
| 2026-05-01 10:46 | -10.58858 | -62.23107 | 38944 ft | 501 kts | 135° |
| 2026-05-01 10:47 | -10.63929 | -62.18256 | 38944 ft | 500 kts | 135° |
| 2026-05-01 10:47 | -10.68996 | -62.13404 | 38945 ft | 500 kts | 135° |
| 2026-05-01 10:48 | -10.74040 | -62.08573 | 38950 ft | 502 kts | 135° |
| 2026-05-01 10:48 | -10.79122 | -62.03703 | 38944 ft | 502 kts | 135° |
| 2026-05-01 10:49 | -10.84205 | -61.98831 | 38946 ft | 502 kts | 135° |
| 2026-05-01 10:49 | -10.89290 | -61.93952 | 38949 ft | 502 kts | 135° |
| 2026-05-01 10:50 | -10.94167 | -61.88890 | 38949 ft | 500 kts | 131° |
| 2026-05-01 10:50 | -10.98875 | -61.83759 | 38951 ft | 499 kts | 131° |
| 2026-05-01 10:51 | -11.03641 | -61.78605 | 38946 ft | 501 kts | 131° |
| 2026-05-01 10:51 | -11.08447 | -61.73466 | 38951 ft | 501 kts | 132° |
| 2026-05-01 10:52 | -11.13260 | -61.68338 | 38955 ft | 501 kts | 132° |
| 2026-05-01 10:52 | -11.18042 | -61.63242 | 38955 ft | 501 kts | 132° |
| 2026-05-01 10:53 | -11.22854 | -61.58109 | 38953 ft | 501 kts | 132° |
| 2026-05-01 10:53 | -11.27665 | -61.52972 | 38955 ft | 501 kts | 132° |
| 2026-05-01 10:54 | -11.32478 | -61.47830 | 38957 ft | 502 kts | 131° |
| 2026-05-01 10:54 | -11.36489 | -61.43545 | 38963 ft | 502 kts | 132° |
| 2026-05-01 10:55 | -11.42249 | -61.37703 | 38960 ft | 503 kts | 134° |
| 2026-05-01 10:55 | -11.47273 | -61.32739 | 38961 ft | 503 kts | 134° |
| 2026-05-01 10:56 | -11.51428 | -61.28608 | 38954 ft | 502 kts | 134° |
| 2026-05-01 10:56 | -11.57215 | -61.22813 | 38958 ft | 502 kts | 134° |
| 2026-05-01 10:57 | -11.62192 | -61.17813 | 38963 ft | 502 kts | 134° |
| 2026-05-01 10:57 | -11.66326 | -61.13658 | 38963 ft | 502 kts | 134° |
| 2026-05-01 10:58 | -11.72142 | -61.07812 | 38963 ft | 502 kts | 134° |
| 2026-05-01 10:58 | -11.77087 | -61.02839 | 38964 ft | 502 kts | 134° |
| 2026-05-01 10:59 | -11.82050 | -60.97847 | 38962 ft | 500 kts | 134° |
| 2026-05-01 10:59 | -11.86168 | -60.93701 | 38966 ft | 500 kts | 134° |
| 2026-05-01 11:00 | -11.91124 | -60.88709 | 38933 ft | 501 kts | 134° |
| 2026-05-01 11:00 | -11.96884 | -60.82905 | 38966 ft | 501 kts | 134° |
| 2026-05-01 11:01 | -12.01841 | -60.77905 | 38970 ft | 501 kts | 134° |
| 2026-05-01 11:01 | -12.05960 | -60.73750 | 38967 ft | 500 kts | 134° |
| 2026-05-01 11:02 | -12.10903 | -60.68762 | 38968 ft | 499 kts | 134° |
| 2026-05-01 11:02 | -12.15843 | -60.63773 | 38965 ft | 499 kts | 134° |
| 2026-05-01 11:03 | -12.20781 | -60.58782 | 38968 ft | 500 kts | 134° |
| 2026-05-01 11:03 | -12.25694 | -60.53815 | 38968 ft | 500 kts | 134° |
| 2026-05-01 11:04 | -12.30634 | -60.48820 | 38981 ft | 500 kts | 134° |
| 2026-05-01 11:04 | -12.35577 | -60.43818 | 38977 ft | 499 kts | 133° |
| 2026-05-01 11:05 | -12.41305 | -60.38012 | 38980 ft | 499 kts | 133° |
| 2026-05-01 11:05 | -12.45401 | -60.33858 | 38982 ft | 499 kts | 133° |
| 2026-05-01 11:06 | -12.50338 | -60.28850 | 38984 ft | 500 kts | 133° |
| 2026-05-01 11:06 | -12.55279 | -60.23836 | 38989 ft | 500 kts | 133° |
| 2026-05-01 11:07 | -12.62688 | -60.16312 | 38989 ft | 500 kts | 133° |
| 2026-05-01 11:07 | -12.67585 | -60.11336 | 38985 ft | 499 kts | 133° |
| 2026-05-01 11:08 | -12.72474 | -60.06294 | 38990 ft | 499 kts | 132° |
| 2026-05-01 11:09 | -12.79565 | -59.98485 | 38990 ft | 499 kts | 131° |
| 2026-05-01 11:09 | -12.84293 | -59.93275 | 38992 ft | 499 kts | 131° |
| 2026-05-01 11:10 | -12.91385 | -59.85527 | 38987 ft | 499 kts | 131° |
| 2026-05-01 11:10 | -12.96139 | -59.80343 | 38989 ft | 499 kts | 131° |
| 2026-05-01 11:11 | -13.00892 | -59.75154 | 38994 ft | 499 kts | 131° |
| 2026-05-01 11:11 | -13.05651 | -59.69955 | 38995 ft | 500 kts | 131° |
| 2026-05-01 11:12 | -13.10374 | -59.64791 | 38994 ft | 500 kts | 131° |
| 2026-05-01 11:12 | -13.15131 | -59.59587 | 38995 ft | 500 kts | 131° |
| 2026-05-01 11:13 | -13.19884 | -59.54384 | 38994 ft | 499 kts | 131° |
| 2026-05-01 11:13 | -13.24634 | -59.49181 | 38994 ft | 499 kts | 131° |
| 2026-05-01 11:14 | -13.29353 | -59.44009 | 38995 ft | 499 kts | 131° |
| 2026-05-01 11:14 | -13.34097 | -59.38806 | 38996 ft | 499 kts | 131° |
| 2026-05-01 11:15 | -13.38844 | -59.33597 | 38995 ft | 499 kts | 131° |
| 2026-05-01 11:15 | -13.43590 | -59.28386 | 39001 ft | 499 kts | 131° |
| 2026-05-01 11:16 | -13.48328 | -59.23180 | 38996 ft | 499 kts | 131° |
| 2026-05-01 11:16 | -13.53032 | -59.18008 | 39001 ft | 499 kts | 131° |
| 2026-05-01 11:17 | -13.57772 | -59.12794 | 38998 ft | 500 kts | 131° |
| 2026-05-01 11:17 | -13.62520 | -59.07568 | 38998 ft | 500 kts | 131° |
| 2026-05-01 11:18 | -13.67266 | -59.02341 | 38996 ft | 500 kts | 131° |
| 2026-05-01 11:18 | -13.71974 | -58.97151 | 39002 ft | 500 kts | 131° |
| 2026-05-01 11:19 | -13.76717 | -58.91921 | 39007 ft | 499 kts | 131° |
| 2026-05-01 11:19 | -13.81455 | -58.86693 | 39006 ft | 500 kts | 131° |
| 2026-05-01 11:20 | -13.86201 | -58.81449 | 39006 ft | 501 kts | 131° |
| 2026-05-01 11:20 | -13.90915 | -58.76237 | 39007 ft | 501 kts | 131° |
| 2026-05-01 11:21 | -13.95663 | -58.70984 | 39010 ft | 501 kts | 131° |
| 2026-05-01 11:21 | -14.00414 | -58.65729 | 39008 ft | 501 kts | 131° |
| 2026-05-01 11:22 | -14.05164 | -58.60473 | 39007 ft | 501 kts | 131° |
| 2026-05-01 11:22 | -14.09879 | -58.55246 | 39010 ft | 502 kts | 131° |
| 2026-05-01 11:23 | -14.14637 | -58.49969 | 39009 ft | 503 kts | 131° |
| 2026-05-01 11:23 | -14.19392 | -58.44694 | 39013 ft | 502 kts | 131° |
| 2026-05-01 11:24 | -14.24144 | -58.39419 | 39012 ft | 502 kts | 131° |
| 2026-05-01 11:25 | -14.31242 | -58.31534 | 39013 ft | 502 kts | 131° |
| 2026-05-01 11:25 | -14.38375 | -58.23601 | 39007 ft | 503 kts | 131° |
| 2026-05-01 11:26 | -14.45509 | -58.15659 | 39010 ft | 503 kts | 131° |
| 2026-05-01 11:27 | -14.50232 | -58.10393 | 39009 ft | 503 kts | 131° |
| 2026-05-01 11:27 | -14.54985 | -58.05089 | 39007 ft | 503 kts | 131° |
| 2026-05-01 11:28 | -14.59740 | -57.99780 | 38999 ft | 504 kts | 131° |
| 2026-05-01 11:28 | -14.64499 | -57.94465 | 39000 ft | 505 kts | 131° |
| 2026-05-01 11:29 | -14.71641 | -57.86479 | 38994 ft | 504 kts | 131° |
| 2026-05-01 11:30 | -14.78746 | -57.78529 | 38990 ft | 504 kts | 131° |
| 2026-05-01 11:30 | -14.83497 | -57.73206 | 38991 ft | 504 kts | 131° |
| 2026-05-01 11:31 | -14.88258 | -57.67869 | 38991 ft | 505 kts | 131° |
| 2026-05-01 11:31 | -14.93024 | -57.62524 | 38985 ft | 506 kts | 132° |
| 2026-05-01 11:32 | -14.97698 | -57.57158 | 38981 ft | 505 kts | 127° |
| 2026-05-01 11:32 | -15.01323 | -57.50985 | 38986 ft | 502 kts | 116° |
| 2026-05-01 11:33 | -15.04403 | -57.44499 | 38986 ft | 502 kts | 114° |
| 2026-05-01 11:33 | -15.07395 | -57.37963 | 38986 ft | 502 kts | 114° |
| 2026-05-01 11:34 | -15.10370 | -57.31482 | 38986 ft | 502 kts | 114° |
| 2026-05-01 11:34 | -15.13380 | -57.24964 | 38985 ft | 502 kts | 114° |
| 2026-05-01 11:35 | -15.16395 | -57.18449 | 38985 ft | 502 kts | 114° |
| 2026-05-01 11:35 | -15.19410 | -57.11928 | 38985 ft | 502 kts | 114° |
| 2026-05-01 11:36 | -15.22400 | -57.05455 | 38987 ft | 501 kts | 114° |
| 2026-05-01 11:36 | -15.25404 | -56.98944 | 38989 ft | 501 kts | 114° |
| 2026-05-01 11:37 | -15.28403 | -56.92437 | 38993 ft | 501 kts | 114° |
| 2026-05-01 11:37 | -15.31381 | -56.85970 | 38992 ft | 501 kts | 114° |
| 2026-05-01 11:38 | -15.34381 | -56.79451 | 38994 ft | 501 kts | 114° |
| 2026-05-01 11:38 | -15.37376 | -56.72935 | 38996 ft | 500 kts | 114° |
| 2026-05-01 11:39 | -15.40364 | -56.66427 | 38997 ft | 500 kts | 114° |
| 2026-05-01 11:39 | -15.43334 | -56.59956 | 38994 ft | 500 kts | 114° |
| 2026-05-01 11:40 | -15.46318 | -56.53445 | 38993 ft | 500 kts | 115° |
| 2026-05-01 11:40 | -15.49299 | -56.46938 | 38994 ft | 500 kts | 114° |
| 2026-05-01 11:41 | -15.52276 | -56.40430 | 38992 ft | 500 kts | 114° |
| 2026-05-01 11:41 | -15.55255 | -56.33914 | 38990 ft | 500 kts | 114° |
| 2026-05-01 11:42 | -15.58213 | -56.27437 | 38993 ft | 500 kts | 114° |
| 2026-05-01 11:42 | -15.61188 | -56.20918 | 38994 ft | 500 kts | 114° |
| 2026-05-01 11:43 | -15.64160 | -56.14398 | 38992 ft | 500 kts | 114° |
| 2026-05-01 11:43 | -15.67588 | -56.08129 | 38993 ft | 500 kts | 122° |
| 2026-05-01 11:44 | -15.73279 | -55.99100 | 38993 ft | 501 kts | 123° |
| 2026-05-01 11:44 | -15.77132 | -55.93073 | 38992 ft | 501 kts | 123° |
| 2026-05-01 11:45 | -15.80973 | -55.87041 | 38992 ft | 501 kts | 123° |
| 2026-05-01 11:45 | -15.84779 | -55.81045 | 38989 ft | 501 kts | 122° |
| 2026-05-01 11:46 | -15.88605 | -55.75006 | 38995 ft | 500 kts | 122° |
| 2026-05-01 11:46 | -15.92425 | -55.68975 | 38996 ft | 500 kts | 122° |
| 2026-05-01 11:47 | -15.96240 | -55.62945 | 39003 ft | 499 kts | 122° |
| 2026-05-01 11:47 | -16.00032 | -55.56945 | 39010 ft | 500 kts | 122° |
| 2026-05-01 11:48 | -16.03855 | -55.50894 | 39009 ft | 501 kts | 122° |
| 2026-05-01 11:48 | -16.07674 | -55.44844 | 39015 ft | 500 kts | 122° |
| 2026-05-01 11:49 | -16.11492 | -55.38791 | 39015 ft | 500 kts | 122° |
| 2026-05-01 11:49 | -16.15282 | -55.32777 | 39018 ft | 500 kts | 122° |
| 2026-05-01 11:50 | -16.19094 | -55.26721 | 39016 ft | 500 kts | 122° |
| 2026-05-01 11:50 | -16.22909 | -55.20657 | 39022 ft | 501 kts | 122° |
| 2026-05-01 11:51 | -16.26728 | -55.14583 | 39022 ft | 502 kts | 122° |
| 2026-05-01 11:51 | -16.30545 | -55.08504 | 39022 ft | 502 kts | 122° |
| 2026-05-01 11:52 | -16.34335 | -55.02465 | 39027 ft | 502 kts | 122° |
| 2026-05-01 11:52 | -16.38150 | -54.96381 | 39026 ft | 502 kts | 122° |
| 2026-05-01 11:53 | -16.41964 | -54.90292 | 39021 ft | 502 kts | 122° |
| 2026-05-01 11:53 | -16.45784 | -54.84190 | 39023 ft | 503 kts | 122° |
| 2026-05-01 11:54 | -16.49577 | -54.78125 | 39023 ft | 503 kts | 122° |
| 2026-05-01 11:54 | -16.53395 | -54.72015 | 39022 ft | 503 kts | 122° |
| 2026-05-01 11:55 | -16.57255 | -54.65925 | 39022 ft | 504 kts | 126° |
| 2026-05-01 11:55 | -16.62036 | -54.60592 | 39026 ft | 504 kts | 136° |
| 2026-05-01 11:56 | -16.67225 | -54.55659 | 39026 ft | 505 kts | 138° |
| 2026-05-01 11:56 | -16.72443 | -54.50819 | 39029 ft | 505 kts | 138° |
| 2026-05-01 11:57 | -16.77692 | -54.45934 | 39028 ft | 506 kts | 138° |
| 2026-05-01 11:57 | -16.82929 | -54.41032 | 39034 ft | 506 kts | 137° |
| 2026-05-01 11:58 | -16.88125 | -54.36153 | 39037 ft | 506 kts | 138° |
| 2026-05-01 11:59 | -16.95974 | -54.28777 | 39042 ft | 506 kts | 138° |
| 2026-05-01 11:59 | -17.01208 | -54.23853 | 39052 ft | 506 kts | 138° |
| 2026-05-01 12:00 | -17.09058 | -54.16464 | 39066 ft | 507 kts | 138° |
| 2026-05-01 12:01 | -17.16875 | -54.09097 | 39061 ft | 507 kts | 138° |
| 2026-05-01 12:01 | -17.22110 | -54.04158 | 39064 ft | 507 kts | 138° |
| 2026-05-01 12:02 | -17.27343 | -53.99218 | 39056 ft | 507 kts | 138° |
| 2026-05-01 12:02 | -17.32567 | -53.94273 | 39074 ft | 507 kts | 137° |
| 2026-05-01 12:03 | -17.37723 | -53.89316 | 39067 ft | 507 kts | 137° |
| 2026-05-01 12:03 | -17.42904 | -53.84313 | 39070 ft | 507 kts | 137° |
| 2026-05-01 12:04 | -17.48090 | -53.79311 | 39063 ft | 507 kts | 137° |
| 2026-05-01 12:04 | -17.53277 | -53.74313 | 39070 ft | 507 kts | 137° |
| 2026-05-01 12:05 | -17.58430 | -53.69346 | 39065 ft | 507 kts | 137° |
| 2026-05-01 12:05 | -17.66214 | -53.61833 | 39057 ft | 507 kts | 137° |
| 2026-05-01 12:06 | -17.71410 | -53.56813 | 39063 ft | 508 kts | 137° |
| 2026-05-01 12:06 | -17.76568 | -53.51826 | 39067 ft | 508 kts | 137° |
| 2026-05-01 12:07 | -17.81756 | -53.46806 | 39066 ft | 508 kts | 137° |
| 2026-05-01 12:07 | -17.86946 | -53.41778 | 39070 ft | 508 kts | 138° |
| 2026-05-01 12:08 | -17.92143 | -53.36741 | 39074 ft | 508 kts | 138° |
| 2026-05-01 12:08 | -17.97338 | -53.31702 | 39076 ft | 508 kts | 138° |
| 2026-05-01 12:09 | -18.02495 | -53.26694 | 39074 ft | 508 kts | 138° |
| 2026-05-01 12:09 | -18.07688 | -53.21649 | 39084 ft | 509 kts | 137° |
| 2026-05-01 12:10 | -18.15473 | -53.14075 | 39088 ft | 508 kts | 137° |
| 2026-05-01 12:11 | -18.23259 | -53.06492 | 39098 ft | 508 kts | 137° |
| 2026-05-01 12:11 | -18.28409 | -53.01470 | 39092 ft | 508 kts | 138° |
| 2026-05-01 12:12 | -18.33601 | -52.96403 | 39099 ft | 509 kts | 137° |
| 2026-05-01 12:12 | -18.38794 | -52.91331 | 39098 ft | 509 kts | 137° |
| 2026-05-01 12:13 | -18.43985 | -52.86256 | 39101 ft | 509 kts | 137° |
| 2026-05-01 12:13 | -18.49141 | -52.81212 | 39102 ft | 509 kts | 137° |
| 2026-05-01 12:14 | -18.54332 | -52.76128 | 39101 ft | 510 kts | 137° |
| 2026-05-01 12:14 | -18.59528 | -52.71036 | 39102 ft | 510 kts | 137° |
| 2026-05-01 12:15 | -18.64716 | -52.65946 | 39095 ft | 510 kts | 137° |
| 2026-05-01 12:15 | -18.69910 | -52.60847 | 39109 ft | 510 kts | 137° |
| 2026-05-01 12:16 | -18.75061 | -52.55784 | 39096 ft | 510 kts | 138° |
| 2026-05-01 12:16 | -18.80258 | -52.50673 | 39096 ft | 511 kts | 138° |
| 2026-05-01 12:17 | -18.85449 | -52.45564 | 39100 ft | 511 kts | 138° |
| 2026-05-01 12:17 | -18.90611 | -52.40478 | 39090 ft | 510 kts | 138° |
| 2026-05-01 12:18 | -18.95796 | -52.35358 | 39105 ft | 511 kts | 138° |
| 2026-05-01 12:18 | -19.00978 | -52.30218 | 39091 ft | 511 kts | 138° |
| 2026-05-01 12:19 | -19.06153 | -52.25082 | 39092 ft | 511 kts | 137° |
| 2026-05-01 12:19 | -19.11331 | -52.19942 | 39091 ft | 511 kts | 137° |
| 2026-05-01 12:20 | -19.16475 | -52.14832 | 39093 ft | 511 kts | 138° |
| 2026-05-01 12:20 | -19.21653 | -52.09683 | 39090 ft | 511 kts | 138° |
| 2026-05-01 12:21 | -19.26828 | -52.04534 | 39093 ft | 511 kts | 138° |
| 2026-05-01 12:21 | -19.32000 | -51.99382 | 39090 ft | 511 kts | 138° |
| 2026-05-01 12:22 | -19.37138 | -51.94259 | 39096 ft | 511 kts | 138° |
| 2026-05-01 12:22 | -19.42310 | -51.89099 | 39092 ft | 511 kts | 138° |
| 2026-05-01 12:23 | -19.47485 | -51.83930 | 39091 ft | 511 kts | 138° |
| 2026-05-01 12:23 | -19.52658 | -51.78758 | 39093 ft | 511 kts | 138° |
| 2026-05-01 12:24 | -19.57790 | -51.73623 | 39093 ft | 510 kts | 138° |
| 2026-05-01 12:24 | -19.62952 | -51.68453 | 39094 ft | 511 kts | 138° |
| 2026-05-01 12:25 | -19.70825 | -51.60820 | 39094 ft | 511 kts | 141° |
| 2026-05-01 12:26 | -19.76324 | -51.56044 | 39090 ft | 510 kts | 142° |
| 2026-05-01 12:26 | -19.84513 | -51.48903 | 39094 ft | 511 kts | 142° |
| 2026-05-01 12:27 | -19.92697 | -51.41631 | 39093 ft | 512 kts | 142° |
| 2026-05-01 12:28 | -20.00877 | -51.34331 | 39093 ft | 512 kts | 142° |
| 2026-05-01 12:29 | -20.09019 | -51.27062 | 39094 ft | 512 kts | 142° |
| 2026-05-01 12:29 | -20.17189 | -51.19760 | 39096 ft | 511 kts | 142° |
| 2026-05-01 12:30 | -20.25321 | -51.12481 | 39096 ft | 512 kts | 142° |
| 2026-05-01 12:31 | -20.30770 | -51.07601 | 39098 ft | 512 kts | 142° |
| 2026-05-01 12:31 | -20.36216 | -51.02713 | 39101 ft | 512 kts | 142° |
| 2026-05-01 12:32 | -20.41653 | -50.97830 | 39096 ft | 511 kts | 142° |
| 2026-05-01 12:32 | -20.49784 | -50.90520 | 39101 ft | 512 kts | 142° |
| 2026-05-01 12:33 | -20.55228 | -50.85621 | 39105 ft | 512 kts | 142° |
| 2026-05-01 12:33 | -20.60666 | -50.80722 | 39107 ft | 511 kts | 142° |
| 2026-05-01 12:34 | -20.66060 | -50.75857 | 39113 ft | 511 kts | 142° |
| 2026-05-01 12:34 | -20.71499 | -50.70947 | 39106 ft | 512 kts | 142° |
| 2026-05-01 12:35 | -20.76939 | -50.66034 | 39111 ft | 512 kts | 142° |
| 2026-05-01 12:35 | -20.82380 | -50.61111 | 39110 ft | 512 kts | 142° |
| 2026-05-01 12:36 | -20.87800 | -50.56175 | 39118 ft | 512 kts | 142° |
| 2026-05-01 12:36 | -20.93189 | -50.51261 | 39118 ft | 513 kts | 142° |
| 2026-05-01 12:37 | -20.98622 | -50.46306 | 39123 ft | 513 kts | 142° |
| 2026-05-01 12:37 | -21.04059 | -50.41346 | 39121 ft | 513 kts | 142° |
| 2026-05-01 12:38 | -21.09491 | -50.36386 | 39122 ft | 513 kts | 142° |
| 2026-05-01 12:38 | -21.14894 | -50.31447 | 39125 ft | 515 kts | 142° |
| 2026-05-01 12:39 | -21.20339 | -50.26466 | 39130 ft | 515 kts | 142° |
| 2026-05-01 12:39 | -21.25780 | -50.21482 | 39129 ft | 515 kts | 142° |
| 2026-05-01 12:40 | -21.31222 | -50.16492 | 39134 ft | 515 kts | 142° |
| 2026-05-01 12:40 | -21.36627 | -50.11532 | 39139 ft | 515 kts | 142° |
| 2026-05-01 12:41 | -21.42063 | -50.06538 | 39135 ft | 515 kts | 142° |
| 2026-05-01 12:41 | -21.47507 | -50.01538 | 39138 ft | 515 kts | 142° |
| 2026-05-01 12:42 | -21.52939 | -49.96539 | 39140 ft | 515 kts | 142° |
| 2026-05-01 12:42 | -21.58333 | -49.91566 | 39140 ft | 514 kts | 142° |
| 2026-05-01 12:43 | -21.63756 | -49.86563 | 39150 ft | 514 kts | 142° |
| 2026-05-01 12:43 | -21.69180 | -49.81556 | 39151 ft | 514 kts | 142° |
| 2026-05-01 12:44 | -21.74567 | -49.76579 | 39146 ft | 514 kts | 142° |
| 2026-05-01 12:45 | -21.85400 | -49.66553 | 39154 ft | 513 kts | 142° |
| 2026-05-01 12:45 | -21.90755 | -49.61463 | 39157 ft | 516 kts | 137° |
| 2026-05-01 12:46 | -21.94902 | -49.55190 | 39158 ft | 523 kts | 117° |
| 2026-05-01 12:46 | -21.97555 | -49.47872 | 39159 ft | 525 kts | 111° |
| 2026-05-01 12:47 | -21.99904 | -49.40417 | 39164 ft | 526 kts | 110° |
| 2026-05-01 12:47 | -22.02229 | -49.32951 | 39163 ft | 525 kts | 110° |
| 2026-05-01 12:48 | -22.04569 | -49.25539 | 39166 ft | 526 kts | 110° |
| 2026-05-01 12:48 | -22.06941 | -49.18084 | 39174 ft | 526 kts | 110° |
| 2026-05-01 12:49 | -22.09316 | -49.10621 | 39185 ft | 526 kts | 110° |
| 2026-05-01 12:49 | -22.11691 | -49.03162 | 39190 ft | 526 kts | 110° |
| 2026-05-01 12:50 | -22.14043 | -48.95756 | 39186 ft | 525 kts | 110° |
| 2026-05-01 12:50 | -22.16406 | -48.88298 | 39185 ft | 525 kts | 110° |
| 2026-05-01 12:51 | -22.18726 | -48.80960 | 39179 ft | 525 kts | 110° |
| 2026-05-01 12:51 | -22.21070 | -48.73537 | 38297 ft | 522 kts | 110° |
| 2026-05-01 12:52 | -22.22244 | -48.69817 | 37410 ft | 526 kts | 110° |
| 2026-05-01 12:52 | -22.24596 | -48.62355 | 35811 ft | 530 kts | 110° |
| 2026-05-01 12:52 | -22.25782 | -48.58589 | 35091 ft | 531 kts | 110° |
| 2026-05-01 12:53 | -22.28148 | -48.51058 | 33667 ft | 524 kts | 109° |
| 2026-05-01 12:53 | -22.29309 | -48.47354 | 32463 ft | 519 kts | 109° |
| 2026-05-01 12:53 | -22.30460 | -48.43683 | 31285 ft | 515 kts | 109° |
| 2026-05-01 12:54 | -22.31603 | -48.40032 | 30238 ft | 509 kts | 108° |
| 2026-05-01 12:54 | -22.33820 | -48.32940 | 28129 ft | 493 kts | 108° |
| 2026-05-01 12:54 | -22.34905 | -48.29464 | 27131 ft | 484 kts | 108° |
| 2026-05-01 12:55 | -22.37020 | -48.22683 | 25224 ft | 468 kts | 109° |
| 2026-05-01 12:55 | -22.38050 | -48.19375 | 24311 ft | 460 kts | 109° |
| 2026-05-01 12:55 | -22.39061 | -48.16127 | 23358 ft | 453 kts | 109° |
| 2026-05-01 12:56 | -22.40055 | -48.12932 | 22268 ft | 446 kts | 109° |
| 2026-05-01 12:56 | -22.41036 | -48.09777 | 21225 ft | 439 kts | 109° |
| 2026-05-01 12:56 | -22.42001 | -48.06670 | 20214 ft | 433 kts | 109° |
| 2026-05-01 12:56 | -22.42938 | -48.03650 | 19254 ft | 427 kts | 109° |
| 2026-05-01 12:57 | -22.43874 | -48.00632 | 18273 ft | 421 kts | 109° |
| 2026-05-01 12:57 | -22.45700 | -47.94746 | 16327 ft | 404 kts | 109° |
| 2026-05-01 12:57 | -22.46581 | -47.91899 | 15568 ft | 392 kts | 108° |
| 2026-05-01 12:58 | -22.47590 | -47.89241 | 15112 ft | 372 kts | 120° |
| 2026-05-01 12:58 | -22.49039 | -47.87016 | 14713 ft | 354 kts | 129° |
| 2026-05-01 12:58 | -22.50555 | -47.84996 | 14340 ft | 338 kts | 130° |
| 2026-05-01 12:59 | -22.53524 | -47.81080 | 13575 ft | 340 kts | 129° |
| 2026-05-01 12:59 | -22.55014 | -47.79107 | 13194 ft | 337 kts | 129° |
| 2026-05-01 12:59 | -22.57945 | -47.75210 | 12444 ft | 331 kts | 129° |
| 2026-05-01 13:00 | -22.60823 | -47.71377 | 11710 ft | 325 kts | 129° |
| 2026-05-01 13:00 | -22.62243 | -47.69483 | 11346 ft | 323 kts | 129° |
| 2026-05-01 13:01 | -22.65062 | -47.65724 | 10617 ft | 320 kts | 129° |
| 2026-05-01 13:01 | -22.66412 | -47.63922 | 10432 ft | 302 kts | 129° |
| 2026-05-01 13:01 | -22.68965 | -47.60509 | 10200 ft | 282 kts | 129° |
| 2026-05-01 13:02 | -22.70200 | -47.58860 | 9965 ft | 287 kts | 129° |
| 2026-05-01 13:07 | -22.93075 | -47.24179 | 4275 ft | 169 kts | 123° |
| 2026-05-01 13:07 | -22.93767 | -47.23212 | 4073 ft | 160 kts | 123° |
| 2026-05-01 13:07 | -22.94429 | -47.22284 | 3872 ft | 150 kts | 123° |
| 2026-05-01 13:08 | -22.95060 | -47.21400 | 3699 ft | 147 kts | 123° |
| 2026-05-01 13:08 | -22.95685 | -47.20523 | 3515 ft | 146 kts | 124° |
| 2026-05-01 13:08 | -22.96307 | -47.19650 | 3312 ft | 146 kts | 124° |
| 2026-05-01 13:08 | -22.96926 | -47.18787 | 3119 ft | 144 kts | 124° |
| 2026-05-01 13:09 | -22.97533 | -47.17934 | 2944 ft | 142 kts | 126° |
| 2026-05-01 13:09 | -22.98139 | -47.17086 | 2762 ft | 141 kts | 126° |
| 2026-05-01 13:09 | -22.98725 | -47.16266 | 2563 ft | 138 kts | 126° |
| 2026-05-01 13:09 | -22.99315 | -47.15439 | 2374 ft | 139 kts | 126° |
| 2026-05-01 13:10 | -22.99907 | -47.14610 | 2207 ft | 141 kts | 126° |
| 2026-05-01 13:10 | -23.00497 | -47.13790 | 2159 ft | 126 kts | 128° |
| 2026-05-01 13:10 | -23.00965 | -47.13134 | 2164 ft | 96 kts | 127° |
| 2026-05-01 13:10 | -23.01325 | -47.12634 | 2158 ft | 73 kts | 128° |
| 2026-05-01 13:11 | -23.01558 | -47.12307 | 2159 ft | 20 kts | 128° |
| 2026-05-01 13:11 | -23.01615 | -47.12246 | 2158 ft | 6 kts | 156° |
| 2026-05-01 13:11 | -23.01673 | -47.12253 | 2163 ft | 11 kts | 200° |
| 2026-05-01 13:11 | -23.01743 | -47.12309 | 2161 ft | 12 kts | 230° |
| 2026-05-01 13:12 | -23.01752 | -47.12345 | 2161 ft | 3 kts | 274° |
| 2026-05-01 13:12 | -23.01732 | -47.12383 | 2161 ft | 8 kts | 310° |
| 2026-05-01 13:12 | -23.01687 | -47.12444 | 2158 ft | 12 kts | 308° |
| 2026-05-01 13:12 | -23.01629 | -47.12524 | 2161 ft | 15 kts | 308° |
| 2026-05-01 13:13 | -23.01560 | -47.12620 | 2160 ft | 17 kts | 308° |
| 2026-05-01 13:13 | -23.01482 | -47.12730 | 2158 ft | 20 kts | 308° |
| 2026-05-01 13:13 | -23.01394 | -47.12852 | 2158 ft | 21 kts | 308° |
| 2026-05-01 13:13 | -23.01300 | -47.12984 | 2160 ft | 23 kts | 306° |
| 2026-05-01 13:14 | -23.01200 | -47.13127 | 2160 ft | 25 kts | 308° |
| 2026-05-01 13:14 | -23.01090 | -47.13277 | 2161 ft | 26 kts | 308° |
| 2026-05-01 13:14 | -23.00974 | -47.13437 | 2160 ft | 27 kts | 308° |
| 2026-05-01 13:14 | -23.00869 | -47.13585 | 2160 ft | 25 kts | 307° |
| 2026-05-01 13:15 | -23.00758 | -47.13742 | 2161 ft | 27 kts | 307° |
| 2026-05-01 13:15 | -23.00655 | -47.13886 | 2160 ft | 18 kts | 308° |
| 2026-05-01 13:15 | -23.00575 | -47.13998 | 2163 ft | 20 kts | 308° |
| 2026-05-01 13:15 | -23.00486 | -47.14122 | 2159 ft | 22 kts | 308° |
| 2026-05-01 13:16 | -23.00391 | -47.14255 | 2159 ft | 23 kts | 308° |
| 2026-05-01 13:16 | -23.00286 | -47.14400 | 2164 ft | 25 kts | 308° |
| 2026-05-01 13:16 | -23.00175 | -47.14555 | 2159 ft | 27 kts | 308° |
| 2026-05-01 13:17 | -23.00086 | -47.14927 | 2164 ft | 19 kts | 218° |
| 2026-05-01 13:17 | -23.00199 | -47.15019 | 2160 ft | 21 kts | 221° |
| 2026-05-01 13:18 | -23.00449 | -47.15230 | 2159 ft | 25 kts | 217° |
| 2026-05-01 13:18 | -23.00590 | -47.15346 | 2159 ft | 26 kts | 217° |
| 2026-05-01 13:18 | -23.00706 | -47.15441 | 2159 ft | 15 kts | 208° |
| 2026-05-01 13:18 | -23.00789 | -47.15398 | 2160 ft | 15 kts | 129° |
| 2026-05-01 13:19 | -23.00855 | -47.15302 | 2162 ft | 13 kts | 128° |
| 2026-05-01 13:19 | -23.00905 | -47.15242 | 2159 ft | 8 kts | 129° |
| 2026-05-01 13:19 | -23.00928 | -47.15209 | 2159 ft | 0 kts | 127° |
| 2026-05-01 13:20 | -23.00929 | -47.15209 | 2159 ft | 0 kts | 128° |